Flight Track Log - Related Links

Times and Time Zones

All times are in EDT time to prevent confusion due to time zone crossing. See the VNR104 flight status page for this flight to view local times or setup timezone preferences in your user account.

Time Position Orientation Groundspeed Altitude Reporting Facility
EDT Latitude Longitude Course Direction KTS MPH feet Rate Location/Type
Thu 01:25:46 PM 32.8333 -96.8333 52° Northeast 152 175 1,300  Level Dallas / Fort Worth TRACON
Thu 01:26:52 PM 32.8667 -96.7833 52° Northeast 202 232 3,300 2,000 Climbing Dallas / Fort Worth TRACON
Thu 01:27:52 PM 32.9167 -96.7667 16° North 199 229 5,500 1,842 Climbing Dallas / Fort Worth TRACON
Thu 01:28:46 PM 32.9667 -96.8000 331° Northwest 229 264 6,800 1,709 Climbing Dallas / Fort Worth TRACON
Thu 01:30:37 PM 33.0825 -96.8531 339° North 259 298 10,200 1,825 Climbing Fort Worth Center
Thu 01:31:37 PM 33.1600 -96.8600 356° North 244 281 12,000 900 Climbing Fort Worth Center
Thu 01:32:37 PM 33.2392 -96.8719 353° North 272 313 12,000 200 Level Fort Worth Center
Thu 01:33:37 PM 33.3269 -96.8814 355° North 314 361 12,400 1,150 Climbing Fort Worth Center
Thu 01:34:37 PM 33.4000 -96.8883 355° North 293 337 14,300 1,850 Climbing Fort Worth Center
Thu 01:35:37 PM 33.4814 -96.9003 353° North 279 321 16,100 1,700 Climbing Fort Worth Center
Thu 01:36:37 PM 33.5503 -96.9050 357° North 274 315 17,700 1,750 Climbing Fort Worth Center
Thu 01:37:37 PM 33.6319 -96.9094 357° North 274 315 19,600 1,650 Climbing Fort Worth Center
Thu 01:38:37 PM 33.6967 -96.9142 357° North 274 315 21,000 1,500 Climbing Fort Worth Center
Thu 01:39:37 PM 33.7822 -96.9211 356° North 274 315 22,600 1,550 Climbing Fort Worth Center
Thu 01:40:37 PM 33.8553 -96.9308 354° North 274 315 24,100 1,500 Climbing Fort Worth Center
Thu 01:41:37 PM 33.9344 -96.9428 353° North 274 315 25,600 1,400 Climbing Fort Worth Center
Thu 01:42:37 PM 34.0181 -96.9525 354° North 279 321 26,900 1,200 Climbing Fort Worth Center
Thu 01:43:37 PM 34.1017 -96.9619 355° North 290 334 28,000 600 Climbing Fort Worth Center
Thu 01:44:37 PM 34.1933 -96.9717 355° North 309 356 28,100 700 Climbing Fort Worth Center
Thu 01:45:37 PM 34.2894 -96.9911 351° North 326 375 29,400 1,250 Climbing Fort Worth Center
Thu 01:46:37 PM 34.3750 -97.0133 348° North 331 381 30,600 1,150 Climbing Fort Worth Center
Thu 01:47:37 PM 34.4628 -97.0408 346° North 331 381 31,700 1,000 Climbing Fort Worth Center
Thu 01:48:37 PM 34.5464 -97.0631 348° North 316 364 32,600 850 Climbing Fort Worth Center
Thu 01:49:37 PM 34.6361 -97.0881 347° North 316 364 33,400 700 Climbing Fort Worth Center
Thu 01:50:37 PM 34.7239 -97.1128 347° North 316 364 34,000 300 Climbing Fort Worth Center
Thu 01:51:37 PM 34.8197 -97.1378 348° North 324 373 34,000  Level Fort Worth Center
Thu 01:52:37 PM 34.9181 -97.1653 347° North 339 390 34,000  Level Fort Worth Center
Thu 01:54:13 PM 35.0839 -97.2086 348° North 380 437 34,000  Level Kansas City Center
Thu 01:55:15 PM 35.1881 -97.2381 347° North 384 442 34,000  Level Kansas City Center
Thu 01:56:17 PM 35.2925 -97.2669 347° North 386 444 34,000  Level Kansas City Center
Thu 01:57:19 PM 35.3936 -97.2956 347° North 389 448 34,000  Level Kansas City Center
Thu 01:58:21 PM 35.5189 -97.3314 347° North 391 450 34,000  Level Kansas City Center
Thu 01:59:22 PM 35.6236 -97.3611 347° North 391 450 34,000  Level Kansas City Center
Thu 02:00:24 PM 35.7275 -97.3914 347° North 386 444 34,000  Level Kansas City Center
Thu 02:01:26 PM 35.8311 -97.4206 347° North 384 442 34,000  Level Kansas City Center
Thu 02:02:27 PM 35.9344 -97.4503 347° North 382 440 34,000  Level Kansas City Center
Thu 02:03:29 PM 36.0375 -97.4808 347° North 382 440 34,000  Level Kansas City Center
Thu 02:04:31 PM 36.1608 -97.5158 347° North 379 436 34,000  Level Kansas City Center
Thu 02:05:33 PM 36.2650 -97.5472 346° North 384 442 34,000  Level Kansas City Center
Thu 02:06:34 PM 36.3669 -97.5764 347° North 379 436 34,000  Level Kansas City Center
Thu 02:07:36 PM 36.4714 -97.6064 347° North 382 440 34,000  Level Kansas City Center
Thu 02:08:38 PM 36.5742 -97.6364 347° North 385 443 34,000  Level Kansas City Center
Thu 02:09:40 PM 36.6808 -97.6692 346° North 387 445 34,000  Level Kansas City Center
Thu 02:10:42 PM 36.8050 -97.7058 347° North 388 447 34,000  Level Kansas City Center
Thu 02:11:44 PM 36.9100 -97.7364 347° North 387 445 34,000  Level Kansas City Center
Thu 02:12:45 PM 37.0153 -97.7675 347° North 388 447 34,000  Level Kansas City Center
Thu 02:13:47 PM 37.1203 -97.7978 347° North 387 445 34,000  Level Kansas City Center
Thu 02:14:49 PM 37.2250 -97.8300 346° North 387 445 34,000  Level Kansas City Center
Thu 02:15:51 PM 37.3292 -97.8608 347° North 385 443 34,000  Level Kansas City Center
Thu 02:16:53 PM 37.4319 -97.8914 347° North 380 437 34,000  Level Kansas City Center
Thu 02:17:55 PM 37.5556 -97.9289 346° North 380 437 34,000  Level Kansas City Center
Thu 02:18:56 PM 37.6467 -97.9561 347° North 381 438 34,000  Level Kansas City Center
Thu 02:19:58 PM 37.7711 -97.9947 346° North 382 440 34,000  Level Kansas City Center
Thu 02:21:00 PM 37.8742 -98.0269 346° North 381 438 34,000  Level Kansas City Center
Thu 02:22:02 PM 37.9786 -98.0586 347° North 384 442 34,000  Level Kansas City Center
Thu 02:23:04 PM 38.0797 -98.0917 346° North 380 437 34,000  Level Kansas City Center
Thu 02:24:06 PM 38.1822 -98.1175 349° North 380 437 34,000  Level Kansas City Center
Thu 02:25:08 PM 38.2844 -98.1486 347° North 378 435 34,000  Level Kansas City Center
Thu 02:26:09 PM 38.3864 -98.1797 347° North 375 432 34,000  Level Kansas City Center
Thu 02:27:11 PM 38.4886 -98.2114 346° North 376 433 34,000  Level Kansas City Center
Thu 02:28:13 PM 38.6100 -98.2486 347° North 376 433 34,000  Level Kansas City Center
Thu 02:29:15 PM 38.7108 -98.2806 346° North 374 430 34,000  Level Kansas City Center
Thu 02:30:17 PM 38.8125 -98.3103 347° North 374 430 34,000  Level Kansas City Center
Thu 02:31:19 PM 38.9117 -98.3417 346° North 370 426 34,000  Level Kansas City Center
Thu 02:32:21 PM 39.0111 -98.3725 346° North 368 423 34,000  Level Kansas City Center
Thu 02:33:23 PM 39.1108 -98.4042 346° North 367 422 34,000  Level Kansas City Center
Thu 02:34:25 PM 39.2156 -98.4372 346° North 366 421 34,000  Level Kansas City Center
Thu 02:35:26 PM 39.3131 -98.4681 346° North 361 415 34,000  Level Kansas City Center
Thu 02:35:41 PM 39.3522 -98.4803 346° North 366 421 34,000  Level Denver Center
Thu 02:36:43 PM 39.4519 -98.5131 346° North 368 423 34,000  Level Denver Center
Thu 02:37:45 PM 39.5528 -98.5439 347° North 371 427 34,000  Level Denver Center
Thu 02:38:47 PM 39.6533 -98.5769 346° North 371 427 34,000  Level Denver Center
Thu 02:39:49 PM 39.7539 -98.6089 346° North 370 426 34,000  Level Denver Center
Thu 02:40:50 PM 39.8539 -98.6431 345° North 370 426 34,000  Level Minneapolis Center
Thu 02:41:53 PM 39.9533 -98.6733 347° North 367 422 34,000  Level Denver Center
Thu 02:42:54 PM 40.0722 -98.7117 346° North 367 422 34,000  Level Minneapolis Center
Thu 02:43:56 PM 40.1714 -98.7436 346° North 366 421 34,000  Level Minneapolis Center
Thu 02:44:58 PM 40.2703 -98.7764 346° North 365 420 34,000  Level Minneapolis Center
Thu 02:46:00 PM 40.3694 -98.8081 346° North 367 422 34,000  Level Minneapolis Center
Thu 02:47:02 PM 40.4683 -98.8414 346° North 365 420 34,000  Level Minneapolis Center
Thu 02:48:04 PM 40.5667 -98.8733 346° North 364 419 34,000  Level Minneapolis Center
Thu 02:49:06 PM 40.6647 -98.9050 346° North 362 417 34,000  Level Minneapolis Center
Thu 02:50:08 PM 40.7717 -98.9403 346° North 365 420 34,000  Level Minneapolis Center
Thu 02:51:10 PM 40.8719 -98.9744 346° North 369 425 34,000  Level Minneapolis Center
Thu 02:52:12 PM 40.9739 -99.0075 346° North 374 430 34,000  Level Minneapolis Center
Thu 02:53:14 PM 41.0950 -99.0486 346° North 374 430 34,000  Level Minneapolis Center
Thu 02:54:16 PM 41.1903 -99.0794 346° North 373 429 34,000  Level Denver Center
Thu 02:55:18 PM 41.2950 -99.1144 346° North 374 430 34,000  Level Denver Center
Thu 02:56:20 PM 41.3967 -99.1478 346° North 373 429 34,000  Level Denver Center
Thu 02:57:22 PM 41.4981 -99.1817 346° North 373 429 34,000  Level Denver Center
Thu 02:58:24 PM 41.5992 -99.2167 345° North 374 430 34,000  Level Denver Center
Thu 02:59:26 PM 41.7214 -99.2578 346° North 375 432 34,000  Level Denver Center
Thu 03:00:28 PM 41.8228 -99.2917 346° North 375 432 34,000  Level Denver Center
Thu 03:01:30 PM 41.9247 -99.3267 346° North 376 433 34,000 -195 Level Denver Center
Thu 03:02:31 PM 42.0264 -99.3606 346° North 375 432 33,600 -1,463 Descending Denver Center
Thu 03:03:33 PM 42.1297 -99.3975 345° North 382 440 31,000 -2,516 Descending Denver Center
Thu 03:04:35 PM 42.2292 -99.4322 346° North 370 426 28,400 -2,661 Descending Denver Center
Thu 03:05:37 PM 42.3278 -99.4622 347° North 363 418 25,500 -3,048 Descending Denver Center
Thu 03:06:39 PM 42.4414 -99.4922 349° North 345 397 22,100 -3,000 Descending Denver Center
Thu 03:07:41 PM 42.5300 -99.5153 349° North 327 376 19,300 -2,613 Descending Denver Center
Thu 03:08:43 PM 42.6142 -99.5408 347° North 313 360 16,700 -2,619 Descending Denver Center
Thu 03:09:47 PM 42.6961 -99.5625 349° North 303 349 13,800 -2,714 Descending Minneapolis Center
Thu 03:10:49 PM 42.7733 -99.5856 348° North 287 330 11,000 -2,177 Descending Minneapolis Center
Thu 03:11:51 PM 42.8539 -99.6044 350° North 279 321 9,300 -1,645 Descending Minneapolis Center
Thu 03:13:00 PM 42.9612 -99.6602 339° North  Level FlightAware Approximate
Thu 03:20:00 PM 43.3833 -99.8333 North  Level FlightAware Approximate
Thu 03:21:00 PM 43.3903 -99.8422 North  Level Estimated
Thu 03:22:00 PM 43.3903 -99.8422 North  Level Estimated

Login

Don't have an account? Register now (free) for customized features, flight alerts, and more!